createdAt,value
2017-12-20T00:00:53.865Z,1028.65
2017-12-20T00:01:53.830Z,1028.66
2017-12-20T00:02:53.792Z,1028.65
2017-12-20T00:03:53.774Z,1028.67
2017-12-20T00:04:53.739Z,1028.64
2017-12-20T00:05:53.711Z,1028.68
2017-12-20T00:06:53.687Z,1028.64
2017-12-20T00:07:53.997Z,1028.65
2017-12-20T00:08:53.624Z,1028.67
2017-12-20T00:09:53.595Z,1028.65
2017-12-20T00:10:53.561Z,1028.62
2017-12-20T00:11:53.530Z,1028.62
2017-12-20T00:12:53.507Z,1028.60
2017-12-20T00:13:53.470Z,1028.55
2017-12-20T00:14:53.438Z,1028.54
2017-12-20T00:15:53.417Z,1028.55
2017-12-20T00:16:53.391Z,1028.50
2017-12-20T00:17:53.356Z,1028.53
2017-12-20T00:18:53.328Z,1028.51
2017-12-20T00:19:53.652Z,1028.50
2017-12-20T00:20:53.268Z,1028.51
2017-12-20T00:21:53.243Z,1028.46
2017-12-20T00:22:53.222Z,1028.51
2017-12-20T00:23:53.181Z,1028.49
2017-12-20T00:24:53.145Z,1028.54
2017-12-20T00:25:53.131Z,1028.55
2017-12-20T00:26:53.098Z,1028.54
2017-12-20T00:27:53.065Z,1028.54
2017-12-20T00:28:53.038Z,1028.50
2017-12-20T00:29:53.001Z,1028.53
2017-12-20T00:30:52.976Z,1028.55
2017-12-20T00:31:52.990Z,1028.51
2017-12-20T00:32:52.914Z,1028.51
2017-12-20T00:33:52.887Z,1028.50
2017-12-20T00:34:52.850Z,1028.50
2017-12-20T00:35:52.821Z,1028.54
2017-12-20T00:36:52.802Z,1028.51
2017-12-20T00:37:52.766Z,1028.50
2017-12-20T00:38:52.745Z,1028.55
2017-12-20T00:39:52.709Z,1028.53
2017-12-20T00:40:52.679Z,1028.52
2017-12-20T00:41:52.662Z,1028.52
2017-12-20T00:42:52.624Z,1028.52
2017-12-20T00:43:52.603Z,1028.51
2017-12-20T00:44:52.568Z,1028.53
2017-12-20T00:45:52.535Z,1028.50
2017-12-20T00:46:52.500Z,1028.55
2017-12-20T00:47:52.476Z,1028.53
2017-12-20T00:48:52.442Z,1028.55
2017-12-20T00:49:52.410Z,1028.57
2017-12-20T00:50:52.387Z,1028.57
2017-12-20T00:51:52.358Z,1028.54
2017-12-20T00:52:52.320Z,1028.56
2017-12-20T00:53:52.303Z,1028.55
2017-12-20T00:54:52.919Z,1028.52
2017-12-20T00:55:52.244Z,1028.54
2017-12-20T00:56:52.220Z,1028.54
2017-12-20T00:57:52.184Z,1028.56
2017-12-20T00:58:52.153Z,1028.58
2017-12-20T00:59:52.127Z,1028.61
2017-12-20T01:00:52.445Z,1028.61
2017-12-20T01:01:52.059Z,1028.59
2017-12-20T01:02:52.032Z,1028.61
2017-12-20T01:03:52.012Z,1028.58
2017-12-20T01:04:51.982Z,1028.60
2017-12-20T01:05:51.945Z,1028.63
2017-12-20T01:06:51.908Z,1028.65
2017-12-20T01:07:51.890Z,1028.62
2017-12-20T01:08:51.852Z,1028.64
2017-12-20T01:09:51.829Z,1028.65
2017-12-20T01:10:51.798Z,1028.64
2017-12-20T01:11:51.764Z,1028.65
2017-12-20T01:12:51.731Z,1028.66
2017-12-20T01:13:51.719Z,1028.70
2017-12-20T01:14:51.690Z,1028.71
2017-12-20T01:15:51.648Z,1028.70
2017-12-20T01:16:51.627Z,1028.71
2017-12-20T01:17:51.594Z,1028.74
2017-12-20T01:18:51.564Z,1028.71
2017-12-20T01:19:51.536Z,1028.75
2017-12-20T01:20:51.510Z,1028.71
2017-12-20T01:21:51.474Z,1028.72
2017-12-20T01:22:51.444Z,1028.72
2017-12-20T01:23:51.765Z,1028.77
2017-12-20T01:24:51.426Z,1028.74
2017-12-20T01:25:51.354Z,1028.77
2017-12-20T01:26:51.325Z,1028.78
2017-12-20T01:27:51.297Z,1028.77
2017-12-20T01:28:51.264Z,1028.78
2017-12-20T01:29:51.239Z,1028.77
2017-12-20T01:30:51.214Z,1028.84
2017-12-20T01:31:51.179Z,1028.82
2017-12-20T01:32:51.142Z,1028.83
2017-12-20T01:33:51.118Z,1028.83
2017-12-20T01:34:51.095Z,1028.85
2017-12-20T01:35:51.056Z,1028.85
2017-12-20T01:36:51.032Z,1028.86
2017-12-20T01:37:51.000Z,1028.83
2017-12-20T01:38:50.981Z,1028.84
2017-12-20T01:39:50.945Z,1028.86
2017-12-20T01:40:50.926Z,1028.88
2017-12-20T01:41:51.138Z,1028.94
2017-12-20T01:42:50.848Z,1028.91
2017-12-20T01:43:50.832Z,1028.90
2017-12-20T01:44:50.803Z,1028.92
2017-12-20T01:45:50.770Z,1028.92
2017-12-20T01:46:50.730Z,1028.92
2017-12-20T01:47:50.710Z,1028.92
2017-12-20T01:48:50.684Z,1028.90
2017-12-20T01:49:50.655Z,1028.90
2017-12-20T01:50:50.630Z,1028.89
2017-12-20T01:51:50.590Z,1028.89
2017-12-20T01:52:50.557Z,1028.89
2017-12-20T01:53:50.783Z,1028.93
2017-12-20T01:54:50.500Z,1028.91
2017-12-20T01:55:50.470Z,1028.90
2017-12-20T01:56:50.442Z,1028.89
2017-12-20T01:57:50.417Z,1028.89
2017-12-20T01:58:50.385Z,1028.85
2017-12-20T01:59:50.354Z,1028.83
2017-12-20T02:00:50.335Z,1028.83
2017-12-20T02:01:50.311Z,1028.83
2017-12-20T02:02:50.271Z,1028.86
2017-12-20T02:03:50.234Z,1028.88
2017-12-20T02:04:50.206Z,1028.83
2017-12-20T02:05:50.486Z,1028.82
2017-12-20T02:06:50.157Z,1028.84
2017-12-20T02:07:50.120Z,1028.89
2017-12-20T02:08:50.085Z,1028.85
2017-12-20T02:09:50.074Z,1028.83
2017-12-20T02:10:50.036Z,1028.82
2017-12-20T02:11:50.009Z,1028.78
2017-12-20T02:12:49.977Z,1028.76
2017-12-20T02:13:49.950Z,1028.74
2017-12-20T02:14:49.911Z,1028.74
2017-12-20T02:15:49.890Z,1028.72
2017-12-20T02:16:49.855Z,1028.72
2017-12-20T02:17:49.822Z,1028.68
2017-12-20T02:18:49.797Z,1028.70
2017-12-20T02:19:49.764Z,1028.68
2017-12-20T02:20:49.739Z,1028.66
2017-12-20T02:21:49.718Z,1028.63
2017-12-20T02:22:49.690Z,1028.64
2017-12-20T02:23:49.997Z,1028.62
2017-12-20T02:24:49.616Z,1028.58
2017-12-20T02:25:49.591Z,1028.58
2017-12-20T02:26:49.568Z,1028.55
2017-12-20T02:27:49.539Z,1028.52
2017-12-20T02:28:49.504Z,1028.52
2017-12-20T02:29:49.723Z,1028.51
2017-12-20T02:30:49.444Z,1028.52
2017-12-20T02:31:49.413Z,1028.51
2017-12-20T02:32:49.397Z,1028.49
2017-12-20T02:33:49.351Z,1028.48
2017-12-20T02:34:49.319Z,1028.52
2017-12-20T02:35:49.545Z,1028.48
2017-12-20T02:36:49.259Z,1028.51
2017-12-20T02:37:49.235Z,1028.55
2017-12-20T02:38:49.208Z,1028.51
2017-12-20T02:39:49.181Z,1028.54
2017-12-20T02:40:49.156Z,1028.55
2017-12-20T02:41:49.376Z,1028.51
2017-12-20T02:42:49.086Z,1028.54
2017-12-20T02:43:49.062Z,1028.52
2017-12-20T02:44:49.037Z,1028.52
2017-12-20T02:45:48.997Z,1028.52
2017-12-20T02:46:48.973Z,1028.55
2017-12-20T02:47:49.240Z,1028.59
2017-12-20T02:48:48.912Z,1028.56
2017-12-20T02:49:48.877Z,1028.56
2017-12-20T02:50:48.853Z,1028.54
2017-12-20T02:51:48.831Z,1028.57
2017-12-20T02:52:48.791Z,1028.53
2017-12-20T02:53:48.764Z,1028.56
2017-12-20T02:54:48.735Z,1028.57
2017-12-20T02:55:48.710Z,1028.55
2017-12-20T02:56:48.681Z,1028.50
2017-12-20T02:57:48.648Z,1028.48
2017-12-20T02:58:48.636Z,1028.48
2017-12-20T02:59:48.600Z,1028.48
2017-12-20T03:00:48.563Z,1028.46
2017-12-20T03:01:48.531Z,1028.44
2017-12-20T03:02:48.499Z,1028.47
2017-12-20T03:03:48.470Z,1028.41
2017-12-20T03:04:48.440Z,1028.41
2017-12-20T03:05:48.768Z,1028.45
2017-12-20T03:06:48.386Z,1028.42
2017-12-20T03:07:48.356Z,1028.46
2017-12-20T03:08:48.324Z,1028.45
2017-12-20T03:09:48.295Z,1028.40
2017-12-20T03:10:48.268Z,1028.38
2017-12-20T03:11:48.236Z,1028.36
2017-12-20T03:12:48.207Z,1028.33
2017-12-20T03:13:48.183Z,1028.32
2017-12-20T03:14:48.152Z,1028.29
2017-12-20T03:15:48.115Z,1028.29
2017-12-20T03:16:48.094Z,1028.26
2017-12-20T03:17:48.358Z,1028.28
2017-12-20T03:18:48.030Z,1028.25
2017-12-20T03:19:48.010Z,1028.28
2017-12-20T03:20:47.973Z,1028.23
2017-12-20T03:21:47.934Z,1028.30
2017-12-20T03:22:47.910Z,1028.25
2017-12-20T03:23:47.879Z,1028.28
2017-12-20T03:24:47.853Z,1028.26
2017-12-20T03:25:47.831Z,1028.24
2017-12-20T03:26:47.801Z,1028.22
2017-12-20T03:27:47.757Z,1028.22
2017-12-20T03:28:47.736Z,1028.18
2017-12-20T03:29:47.953Z,1028.13
2017-12-20T03:30:47.675Z,1028.15
2017-12-20T03:31:47.655Z,1028.16
2017-12-20T03:32:47.617Z,1028.19
2017-12-20T03:33:47.582Z,1028.20
2017-12-20T03:34:47.556Z,1028.20
2017-12-20T03:35:47.522Z,1028.20
2017-12-20T03:36:47.504Z,1028.17
2017-12-20T03:37:47.468Z,1028.17
2017-12-20T03:38:47.443Z,1028.14
2017-12-20T03:39:47.415Z,1028.13
2017-12-20T03:40:47.391Z,1028.14
2017-12-20T03:41:47.347Z,1028.18
2017-12-20T03:42:47.322Z,1028.16
2017-12-20T03:43:47.308Z,1028.18
2017-12-20T03:44:47.272Z,1028.25
2017-12-20T03:45:47.236Z,1028.26
2017-12-20T03:46:47.211Z,1028.24
2017-12-20T03:47:47.529Z,1028.23
2017-12-20T03:48:47.148Z,1028.30
2017-12-20T03:49:47.122Z,1028.34
2017-12-20T03:50:47.093Z,1028.34
2017-12-20T03:51:47.054Z,1028.33
2017-12-20T03:52:47.037Z,1028.33
2017-12-20T03:53:47.255Z,1028.33
2017-12-20T03:54:46.972Z,1028.32
2017-12-20T03:55:46.937Z,1028.36
2017-12-20T03:56:46.916Z,1028.39
2017-12-20T03:57:46.880Z,1028.38
2017-12-20T03:58:46.844Z,1028.37
2017-12-20T03:59:47.122Z,1028.44
2017-12-20T04:00:46.801Z,1028.41
2017-12-20T04:01:46.765Z,1028.40
2017-12-20T04:02:46.728Z,1028.43
2017-12-20T04:03:46.699Z,1028.39
2017-12-20T04:04:46.674Z,1028.42
2017-12-20T04:05:46.651Z,1028.39
2017-12-20T04:06:46.621Z,1028.45
2017-12-20T04:07:46.585Z,1028.44
2017-12-20T04:08:46.561Z,1028.50
2017-12-20T04:09:46.529Z,1028.50
2017-12-20T04:10:46.504Z,1028.53
2017-12-20T04:11:46.471Z,1028.56
2017-12-20T04:12:46.443Z,1028.53
2017-12-20T04:13:46.407Z,1028.52
2017-12-20T04:14:46.382Z,1028.55
2017-12-20T04:15:46.360Z,1028.55
2017-12-20T04:16:46.329Z,1028.58
2017-12-20T04:17:46.289Z,1028.56
2017-12-20T04:18:46.274Z,1028.52
2017-12-20T04:19:46.236Z,1028.51
2017-12-20T04:20:46.210Z,1028.48
2017-12-20T04:21:46.182Z,1028.48
2017-12-20T04:22:46.154Z,1028.45
2017-12-20T04:23:46.475Z,1028.48
2017-12-20T04:24:46.091Z,1028.47
2017-12-20T04:25:46.062Z,1028.42
2017-12-20T04:26:46.036Z,1028.46
2017-12-20T04:27:46.002Z,1028.45
2017-12-20T04:28:46.011Z,1028.43
2017-12-20T04:29:45.945Z,1028.45
2017-12-20T04:30:45.910Z,1028.43
2017-12-20T04:31:45.940Z,1028.40
2017-12-20T04:32:45.858Z,1028.43
2017-12-20T04:33:45.822Z,1028.44
2017-12-20T04:34:45.802Z,1028.43
2017-12-20T04:35:45.765Z,1028.45
2017-12-20T04:36:45.737Z,1028.43
2017-12-20T04:37:45.717Z,1028.43
2017-12-20T04:38:45.687Z,1028.43
2017-12-20T04:39:45.653Z,1028.43
2017-12-20T04:40:45.628Z,1028.42
2017-12-20T04:41:45.600Z,1028.39
2017-12-20T04:42:45.568Z,1028.43
2017-12-20T04:43:45.538Z,1028.42
2017-12-20T04:44:45.506Z,1028.41
2017-12-20T04:45:45.478Z,1028.41
2017-12-20T04:46:45.450Z,1028.45
2017-12-20T04:47:45.418Z,1028.42
2017-12-20T04:48:45.391Z,1028.44
2017-12-20T04:49:45.358Z,1028.44
2017-12-20T04:50:45.333Z,1028.42
2017-12-20T04:51:45.302Z,1028.41
2017-12-20T04:52:45.270Z,1028.41
2017-12-20T04:53:45.604Z,1028.44
2017-12-20T04:54:45.212Z,1028.38
2017-12-20T04:55:45.183Z,1028.39
2017-12-20T04:56:45.158Z,1028.47
2017-12-20T04:57:45.124Z,1028.44
2017-12-20T04:58:45.100Z,1028.44
2017-12-20T04:59:46.216Z,1028.46
2017-12-20T05:00:45.045Z,1028.47
2017-12-20T05:01:45.004Z,1028.48
2017-12-20T05:02:44.981Z,1028.45
2017-12-20T05:03:44.952Z,1028.46
2017-12-20T05:04:44.928Z,1028.48
2017-12-20T05:05:44.899Z,1028.48
2017-12-20T05:06:44.865Z,1028.47
2017-12-20T05:07:44.836Z,1028.51
2017-12-20T05:08:44.805Z,1028.53
2017-12-20T05:09:44.790Z,1028.58
2017-12-20T05:10:44.749Z,1028.57
2017-12-20T05:11:44.715Z,1028.61
2017-12-20T05:12:44.688Z,1028.62
2017-12-20T05:13:44.668Z,1028.65
2017-12-20T05:14:44.625Z,1028.60
2017-12-20T05:15:44.602Z,1028.62
2017-12-20T05:16:44.568Z,1028.63
2017-12-20T05:17:44.535Z,1028.64
2017-12-20T05:18:44.505Z,1028.66
2017-12-20T05:19:44.492Z,1028.66
2017-12-20T05:20:44.462Z,1028.65
2017-12-20T05:21:44.429Z,1028.72
2017-12-20T05:22:44.398Z,1028.71
2017-12-20T05:23:44.361Z,1028.70
2017-12-20T05:24:44.339Z,1028.71
2017-12-20T05:25:44.310Z,1028.70
2017-12-20T05:26:44.274Z,1028.67
2017-12-20T05:27:44.246Z,1028.70
2017-12-20T05:28:44.222Z,1028.68
2017-12-20T05:29:44.187Z,1028.71
2017-12-20T05:30:44.156Z,1028.74
2017-12-20T05:31:44.138Z,1028.79
2017-12-20T05:32:44.110Z,1028.76
2017-12-20T05:33:44.075Z,1028.76
2017-12-20T05:34:44.042Z,1028.78
2017-12-20T05:35:44.010Z,1028.79
2017-12-20T05:36:43.989Z,1028.77
2017-12-20T05:37:43.957Z,1028.78
2017-12-20T05:38:43.930Z,1028.72
2017-12-20T05:39:43.903Z,1028.72
2017-12-20T05:40:43.867Z,1028.71
2017-12-20T05:41:43.836Z,1028.74
2017-12-20T05:42:43.810Z,1028.72
2017-12-20T05:43:43.777Z,1028.71
2017-12-20T05:44:43.744Z,1028.68
2017-12-20T05:45:43.724Z,1028.71
2017-12-20T05:46:43.992Z,1028.67
2017-12-20T05:47:43.655Z,1028.70
2017-12-20T05:48:43.627Z,1028.72
2017-12-20T05:49:43.599Z,1028.74
2017-12-20T05:50:43.574Z,1028.74
2017-12-20T05:51:43.542Z,1028.74
2017-12-20T05:52:43.805Z,1028.73
2017-12-20T05:53:43.489Z,1028.77
2017-12-20T05:54:43.456Z,1028.74
2017-12-20T05:55:43.434Z,1028.77
2017-12-20T05:56:43.400Z,1028.72
2017-12-20T05:57:43.361Z,1028.72
2017-12-20T05:58:43.335Z,1028.74
2017-12-20T05:59:43.303Z,1028.77
2017-12-20T06:00:43.277Z,1028.76
2017-12-20T06:01:43.242Z,1028.74
2017-12-20T06:02:43.212Z,1028.80
2017-12-20T06:03:43.190Z,1028.77
2017-12-20T06:04:43.461Z,1028.76
2017-12-20T06:05:43.132Z,1028.77
2017-12-20T06:06:43.105Z,1028.74
2017-12-20T06:07:43.065Z,1028.79
2017-12-20T06:08:43.040Z,1028.83
2017-12-20T06:09:43.021Z,1028.86
2017-12-20T06:10:42.990Z,1028.86
2017-12-20T06:11:42.951Z,1028.87
2017-12-20T06:12:42.920Z,1028.88
2017-12-20T06:13:42.897Z,1028.86
2017-12-20T06:14:42.864Z,1028.87
2017-12-20T06:15:42.839Z,1028.90
2017-12-20T06:16:42.809Z,1028.84
2017-12-20T06:17:42.771Z,1028.88
2017-12-20T06:18:42.739Z,1028.85
2017-12-20T06:19:42.718Z,1028.86
2017-12-20T06:20:42.684Z,1028.91
2017-12-20T06:21:42.675Z,1028.88
2017-12-20T06:22:42.636Z,1028.91
2017-12-20T06:23:42.611Z,1028.89
2017-12-20T06:24:42.565Z,1028.93
2017-12-20T06:25:42.537Z,1028.94
2017-12-20T06:26:42.514Z,1028.91
2017-12-20T06:27:42.486Z,1028.90
2017-12-20T06:28:42.450Z,1028.93
2017-12-20T06:29:42.425Z,1028.92
2017-12-20T06:30:42.397Z,1028.96
2017-12-20T06:31:42.368Z,1028.98
2017-12-20T06:32:42.338Z,1028.95
2017-12-20T06:33:42.305Z,1028.97
2017-12-20T06:34:42.276Z,1028.95
2017-12-20T06:35:42.246Z,1028.94
2017-12-20T06:36:42.211Z,1028.94
2017-12-20T06:37:42.193Z,1028.97
2017-12-20T06:38:42.163Z,1028.97
2017-12-20T06:39:42.122Z,1029.00
2017-12-20T06:40:42.091Z,1028.99
2017-12-20T06:41:42.073Z,1028.96
2017-12-20T06:42:42.035Z,1029.00
2017-12-20T06:43:42.018Z,1028.99
2017-12-20T06:44:41.980Z,1028.94
2017-12-20T06:45:41.953Z,1028.99
2017-12-20T06:46:41.918Z,1028.97
2017-12-20T06:47:41.894Z,1028.92
2017-12-20T06:48:41.866Z,1028.93
2017-12-20T06:49:41.826Z,1028.92
2017-12-20T06:50:41.799Z,1028.92
2017-12-20T06:51:41.778Z,1028.96
2017-12-20T06:52:41.744Z,1028.96
2017-12-20T06:53:41.712Z,1029.02
2017-12-20T06:54:41.682Z,1029.03
2017-12-20T06:55:41.651Z,1029.05
2017-12-20T06:56:41.620Z,1029.07
2017-12-20T06:57:41.604Z,1029.07
2017-12-20T06:58:41.565Z,1029.04
2017-12-20T06:59:41.542Z,1029.05
2017-12-20T07:00:41.515Z,1029.02
2017-12-20T07:01:41.478Z,1029.07
2017-12-20T07:02:41.447Z,1029.03
2017-12-20T07:03:41.420Z,1029.08
2017-12-20T07:04:41.396Z,1029.10
2017-12-20T07:05:41.355Z,1029.09
2017-12-20T07:06:41.345Z,1029.12
2017-12-20T07:07:41.304Z,1029.15
2017-12-20T07:08:41.281Z,1029.13
2017-12-20T07:09:41.242Z,1029.16
2017-12-20T07:10:41.219Z,1029.10
2017-12-20T07:11:41.185Z,1029.10
2017-12-20T07:12:41.150Z,1029.09
2017-12-20T07:13:41.122Z,1029.09
2017-12-20T07:14:41.098Z,1029.10
2017-12-20T07:15:41.072Z,1029.07
2017-12-20T07:16:41.339Z,1029.13
2017-12-20T07:17:41.007Z,1029.12
2017-12-20T07:18:40.983Z,1029.16
2017-12-20T07:19:40.963Z,1029.17
2017-12-20T07:20:40.926Z,1029.12
2017-12-20T07:21:40.893Z,1029.13
2017-12-20T07:22:41.129Z,1029.16
2017-12-20T07:23:40.831Z,1029.14
2017-12-20T07:24:40.805Z,1029.10
2017-12-20T07:25:40.775Z,1029.16
2017-12-20T07:26:40.746Z,1029.14
2017-12-20T07:27:40.706Z,1029.20
2017-12-20T07:28:40.679Z,1029.23
2017-12-20T07:29:40.652Z,1029.26
2017-12-20T07:30:40.637Z,1029.26
2017-12-20T07:31:40.592Z,1029.28
2017-12-20T07:32:40.574Z,1029.30
2017-12-20T07:33:40.536Z,1029.35
2017-12-20T07:34:40.511Z,1029.35
2017-12-20T07:35:40.485Z,1029.39
2017-12-20T07:36:40.454Z,1029.41
2017-12-20T07:37:40.418Z,1029.39
2017-12-20T07:38:40.385Z,1029.40
2017-12-20T07:39:40.357Z,1029.48
2017-12-20T07:40:40.332Z,1029.42
2017-12-20T07:41:40.312Z,1029.44
2017-12-20T07:42:40.268Z,1029.42
2017-12-20T07:43:40.242Z,1029.41
2017-12-20T07:44:40.214Z,1029.46
2017-12-20T07:45:40.187Z,1029.43
2017-12-20T07:46:40.159Z,1029.45
2017-12-20T07:47:40.143Z,1029.46
2017-12-20T07:48:40.101Z,1029.44
2017-12-20T07:49:40.072Z,1029.45
2017-12-20T07:50:40.030Z,1029.45
2017-12-20T07:51:40.007Z,1029.45
2017-12-20T07:52:39.973Z,1029.46
2017-12-20T07:53:39.955Z,1029.47
2017-12-20T07:54:39.928Z,1029.45
2017-12-20T07:55:39.894Z,1029.44
2017-12-20T07:56:39.860Z,1029.45
2017-12-20T07:57:39.832Z,1029.43
2017-12-20T07:58:39.798Z,1029.45
2017-12-20T07:59:39.780Z,1029.51
2017-12-20T08:00:39.739Z,1029.52
2017-12-20T08:01:39.724Z,1029.52
2017-12-20T08:02:39.691Z,1029.50
2017-12-20T08:03:39.650Z,1029.48
2017-12-20T08:04:39.627Z,1029.50
2017-12-20T08:05:39.593Z,1029.47
2017-12-20T08:06:39.566Z,1029.49
2017-12-20T08:07:39.531Z,1029.45
2017-12-20T08:08:39.508Z,1029.44
2017-12-20T08:09:39.475Z,1029.41
2017-12-20T08:10:39.452Z,1029.44
2017-12-20T08:11:39.416Z,1029.41
2017-12-20T08:12:39.386Z,1029.40
2017-12-20T08:13:39.360Z,1029.39
2017-12-20T08:14:39.335Z,1029.35
2017-12-20T08:15:39.304Z,1029.37
2017-12-20T08:16:39.272Z,1029.37
2017-12-20T08:17:39.241Z,1029.37
2017-12-20T08:18:39.213Z,1029.39
2017-12-20T08:19:39.176Z,1029.38
2017-12-20T08:20:39.148Z,1029.37
2017-12-20T08:21:39.133Z,1029.42
2017-12-20T08:22:39.145Z,1029.41
2017-12-20T08:23:39.069Z,1029.45
2017-12-20T08:24:39.036Z,1029.45
2017-12-20T08:25:39.005Z,1029.39
2017-12-20T08:26:38.975Z,1029.43
2017-12-20T08:27:38.953Z,1029.44
2017-12-20T08:28:38.930Z,1029.40
2017-12-20T08:29:38.887Z,1029.42
2017-12-20T08:30:38.861Z,1029.43
2017-12-20T08:31:38.845Z,1029.47
2017-12-20T08:32:38.801Z,1029.43
2017-12-20T08:33:38.773Z,1029.42
2017-12-20T08:34:38.747Z,1029.40
2017-12-20T08:35:38.711Z,1029.39
2017-12-20T08:36:38.681Z,1029.41
2017-12-20T08:37:38.663Z,1029.38
2017-12-20T08:38:38.631Z,1029.38
2017-12-20T08:39:38.596Z,1029.37
2017-12-20T08:40:38.562Z,1029.38
2017-12-20T08:41:38.542Z,1029.39
2017-12-20T08:42:38.518Z,1029.50
2017-12-20T08:43:38.493Z,1029.44
2017-12-20T08:44:38.467Z,1029.44
2017-12-20T08:45:38.418Z,1029.45
2017-12-20T08:46:38.386Z,1029.47
2017-12-20T08:47:38.367Z,1029.52
2017-12-20T08:48:38.333Z,1029.53
2017-12-20T08:49:38.323Z,1029.55
2017-12-20T08:50:38.272Z,1029.61
2017-12-20T08:51:38.250Z,1029.61
2017-12-20T08:52:38.218Z,1029.64
2017-12-20T08:53:38.193Z,1029.69
2017-12-20T08:54:38.164Z,1029.67
2017-12-20T08:55:38.135Z,1029.66
2017-12-20T08:56:38.101Z,1029.68
2017-12-20T08:57:38.079Z,1029.69
2017-12-20T08:58:38.043Z,1029.69
2017-12-20T08:59:38.024Z,1029.70
2017-12-20T09:00:37.986Z,1029.69
2017-12-20T09:01:37.985Z,1029.76
2017-12-20T09:02:37.923Z,1029.70
2017-12-20T09:03:37.904Z,1029.70
2017-12-20T09:04:37.872Z,1029.76
2017-12-20T09:05:37.847Z,1029.73
2017-12-20T09:06:37.805Z,1029.66
2017-12-20T09:07:37.773Z,1029.66
2017-12-20T09:08:37.746Z,1029.66
2017-12-20T09:09:37.721Z,1029.66
2017-12-20T09:10:37.692Z,1029.67
2017-12-20T09:11:37.664Z,1029.64
2017-12-20T09:12:37.640Z,1029.63
2017-12-20T09:13:37.623Z,1029.65
2017-12-20T09:14:37.592Z,1029.67
2017-12-20T09:15:37.544Z,1029.68
2017-12-20T09:16:37.518Z,1029.77
2017-12-20T09:17:37.490Z,1029.74
2017-12-20T09:18:37.458Z,1029.72
2017-12-20T09:19:37.428Z,1029.76
2017-12-20T09:20:37.411Z,1029.76
2017-12-20T09:21:37.383Z,1029.69
2017-12-20T09:22:37.345Z,1029.69
2017-12-20T09:23:37.317Z,1029.62
2017-12-20T09:24:37.281Z,1029.60
2017-12-20T09:25:37.260Z,1029.63
2017-12-20T09:26:37.227Z,1029.65
2017-12-20T09:27:37.192Z,1029.66
2017-12-20T09:28:37.172Z,1029.67
2017-12-20T09:29:37.142Z,1029.75
2017-12-20T09:30:37.110Z,1029.73
2017-12-20T09:31:37.079Z,1029.76
2017-12-20T09:32:37.063Z,1029.74
2017-12-20T09:33:37.029Z,1029.73
2017-12-20T09:34:36.990Z,1029.78
2017-12-20T09:35:36.971Z,1029.77
2017-12-20T09:36:36.941Z,1029.74
2017-12-20T09:37:36.906Z,1029.78
2017-12-20T09:38:36.880Z,1029.77
2017-12-20T09:39:36.847Z,1029.77
2017-12-20T09:40:36.826Z,1029.77
2017-12-20T09:41:36.793Z,1029.78
2017-12-20T09:42:36.769Z,1029.78
2017-12-20T09:43:36.730Z,1029.80
2017-12-20T09:44:36.713Z,1029.81
2017-12-20T09:45:36.698Z,1029.80
2017-12-20T09:46:36.653Z,1029.73
2017-12-20T09:47:36.621Z,1029.80
2017-12-20T09:48:36.596Z,1029.78
2017-12-20T09:49:36.560Z,1029.77
2017-12-20T09:50:36.526Z,1029.75
2017-12-20T09:51:36.507Z,1029.80
2017-12-20T09:52:36.483Z,1029.76
2017-12-20T09:53:36.452Z,1029.77
2017-12-20T09:54:36.432Z,1029.76
2017-12-20T09:55:36.387Z,1029.77
2017-12-20T09:56:36.375Z,1029.81
2017-12-20T09:57:36.343Z,1029.86
2017-12-20T09:58:36.309Z,1029.89
2017-12-20T09:59:36.275Z,1029.89
2017-12-20T10:00:36.249Z,1029.91
2017-12-20T10:01:36.223Z,1029.94
2017-12-20T10:02:36.190Z,1029.95
2017-12-20T10:03:36.168Z,1029.96
2017-12-20T10:04:36.134Z,1029.96
2017-12-20T10:05:36.114Z,1029.90
2017-12-20T10:06:36.071Z,1029.90
2017-12-20T10:07:36.037Z,1029.89
2017-12-20T10:08:36.019Z,1029.86
2017-12-20T10:09:35.997Z,1029.88
2017-12-20T10:10:35.960Z,1029.83
2017-12-20T10:11:35.928Z,1029.84
2017-12-20T10:12:35.908Z,1029.84
2017-12-20T10:13:35.868Z,1029.81
2017-12-20T10:14:35.837Z,1029.80
2017-12-20T10:15:35.817Z,1029.81
2017-12-20T10:16:35.792Z,1029.80
2017-12-20T10:17:35.764Z,1029.76
2017-12-20T10:18:35.729Z,1029.77
2017-12-20T10:19:35.700Z,1029.80
2017-12-20T10:20:35.679Z,1029.77
2017-12-20T10:21:35.661Z,1029.70
2017-12-20T10:22:35.618Z,1029.75
2017-12-20T10:23:35.582Z,1029.78
2017-12-20T10:24:35.557Z,1029.74
2017-12-20T10:25:35.531Z,1029.71
2017-12-20T10:26:35.497Z,1029.69
2017-12-20T10:27:35.474Z,1029.61
2017-12-20T10:28:35.446Z,1029.69
2017-12-20T10:29:35.410Z,1029.66
2017-12-20T10:30:35.390Z,1029.61
2017-12-20T10:31:35.357Z,1029.66
2017-12-20T10:32:35.325Z,1029.60
2017-12-20T10:33:35.298Z,1029.64
2017-12-20T10:34:35.267Z,1029.61
2017-12-20T10:35:35.248Z,1029.59
2017-12-20T10:36:35.211Z,1029.59
2017-12-20T10:37:35.186Z,1029.60
2017-12-20T10:38:35.156Z,1029.60
2017-12-20T10:39:35.123Z,1029.57
2017-12-20T10:40:35.088Z,1029.58
2017-12-20T10:41:35.069Z,1029.59
2017-12-20T10:42:35.036Z,1029.61
2017-12-20T10:43:35.015Z,1029.55
2017-12-20T10:44:34.989Z,1029.55
2017-12-20T10:45:34.949Z,1029.57
2017-12-20T10:46:34.920Z,1029.60
2017-12-20T10:47:34.893Z,1029.61
2017-12-20T10:48:34.864Z,1029.58
2017-12-20T10:49:34.842Z,1029.58
2017-12-20T10:50:34.803Z,1029.56
2017-12-20T10:51:34.780Z,1029.52
2017-12-20T10:52:34.755Z,1029.48
2017-12-20T10:53:34.728Z,1029.45
2017-12-20T10:54:34.688Z,1029.42
2017-12-20T10:55:34.663Z,1029.48
2017-12-20T10:56:34.629Z,1029.47
2017-12-20T10:57:34.612Z,1029.34
2017-12-20T10:58:34.577Z,1029.42
2017-12-20T10:59:34.560Z,1029.45
2017-12-20T11:00:34.526Z,1029.41
2017-12-20T11:01:34.492Z,1029.44
2017-12-20T11:02:34.456Z,1029.56
2017-12-20T11:03:34.443Z,1029.39
2017-12-20T11:04:34.408Z,1029.47
2017-12-20T11:05:34.381Z,1029.40
2017-12-20T11:06:34.341Z,1029.40
2017-12-20T11:07:34.324Z,1029.50
2017-12-20T11:08:34.283Z,1029.49
2017-12-20T11:09:34.268Z,1029.44
2017-12-20T11:10:34.249Z,1029.43
2017-12-20T11:11:34.247Z,1029.39
2017-12-20T11:12:34.179Z,1029.44
2017-12-20T11:13:34.151Z,1029.26
2017-12-20T11:14:34.120Z,1029.34
2017-12-20T11:15:34.101Z,1029.43
2017-12-20T11:16:34.064Z,1029.46
2017-12-20T11:17:34.030Z,1029.48
2017-12-20T11:18:34.006Z,1029.45
2017-12-20T11:19:33.979Z,1029.48
2017-12-20T11:20:33.951Z,1029.44
2017-12-20T11:21:33.918Z,1029.46
2017-12-20T11:22:33.889Z,1029.40
2017-12-20T11:23:33.860Z,1029.43
2017-12-20T11:24:33.830Z,1029.44
2017-12-20T11:25:33.813Z,1029.43
2017-12-20T11:26:33.787Z,1029.42
2017-12-20T11:27:33.741Z,1029.39
2017-12-20T11:28:33.728Z,1029.34
2017-12-20T11:29:33.690Z,1029.35
2017-12-20T11:30:33.668Z,1029.35
2017-12-20T11:31:33.642Z,1029.27
2017-12-20T11:32:33.608Z,1029.33
2017-12-20T11:33:33.570Z,1029.31
2017-12-20T11:34:33.547Z,1029.25
2017-12-20T11:35:33.526Z,1029.31
2017-12-20T11:36:33.496Z,1029.30
2017-12-20T11:37:33.462Z,1029.29
2017-12-20T11:38:33.437Z,1029.29
2017-12-20T11:39:33.406Z,1029.27
2017-12-20T11:40:33.380Z,1029.28
2017-12-20T11:41:33.355Z,1029.31
2017-12-20T11:42:33.332Z,1029.25
2017-12-20T11:43:33.290Z,1029.24
2017-12-20T11:44:33.264Z,1029.27
2017-12-20T11:45:33.236Z,1029.23
2017-12-20T11:46:33.210Z,1029.27
2017-12-20T11:47:33.185Z,1029.29
2017-12-20T11:48:33.154Z,1029.36
2017-12-20T11:49:33.113Z,1029.35
2017-12-20T11:50:33.090Z,1029.31
2017-12-20T11:51:33.060Z,1029.32
2017-12-20T11:52:33.039Z,1029.25
2017-12-20T11:53:33.005Z,1029.22
2017-12-20T11:54:32.977Z,1029.24
2017-12-20T11:55:32.947Z,1029.26
2017-12-20T11:56:32.922Z,1029.23
2017-12-20T11:57:32.903Z,1029.18
2017-12-20T11:58:32.870Z,1029.14
2017-12-20T11:59:32.836Z,1029.08
2017-12-20T12:00:32.804Z,1029.13
2017-12-20T12:01:32.787Z,1029.07
2017-12-20T12:02:32.753Z,1029.05
2017-12-20T12:03:32.727Z,1029.07
2017-12-20T12:04:32.699Z,1029.10
2017-12-20T12:05:32.667Z,1029.08